createdAt,value
2017-12-27T00:00:19.564Z,1003.35
2017-12-27T00:01:21.436Z,1003.35
2017-12-27T00:02:23.315Z,1003.30
2017-12-27T00:03:25.182Z,1003.34
2017-12-27T00:04:26.999Z,1003.31
2017-12-27T00:05:28.792Z,1003.31
2017-12-27T00:06:30.657Z,1003.36
2017-12-27T00:07:32.516Z,1003.41
2017-12-27T00:08:34.391Z,1003.36
2017-12-27T00:09:48.522Z,1003.35
2017-12-27T00:10:50.393Z,1003.32
2017-12-27T00:11:52.251Z,1003.31
2017-12-27T00:12:54.133Z,1003.31
2017-12-27T00:13:55.928Z,1003.26
2017-12-27T00:14:57.726Z,1003.21
2017-12-27T00:15:59.598Z,1003.23
2017-12-27T00:17:01.453Z,1003.24
2017-12-27T00:18:03.337Z,1003.22
2017-12-27T00:19:17.463Z,1003.20
2017-12-27T00:20:19.350Z,1003.20
2017-12-27T00:21:21.237Z,1003.19
2017-12-27T00:22:23.134Z,1003.22
2017-12-27T00:23:24.957Z,1003.15
2017-12-27T00:24:26.768Z,1003.14
2017-12-27T00:25:28.635Z,1003.18
2017-12-27T00:26:30.512Z,1003.15
2017-12-27T00:27:32.410Z,1003.12
2017-12-27T00:28:46.582Z,1003.07
2017-12-27T00:29:48.445Z,1003.08
2017-12-27T00:30:50.332Z,1003.03
2017-12-27T00:31:52.217Z,1003.03
2017-12-27T00:32:54.014Z,1002.98
2017-12-27T00:33:55.844Z,1002.95
2017-12-27T00:34:57.698Z,1002.96
2017-12-27T00:35:59.564Z,1002.95
2017-12-27T00:37:01.431Z,1002.94
2017-12-27T00:38:15.583Z,1002.90
2017-12-27T00:39:17.448Z,1002.88
2017-12-27T00:40:19.304Z,1002.84
2017-12-27T00:41:21.167Z,1002.86
2017-12-27T00:42:22.984Z,1002.81
2017-12-27T00:43:24.787Z,1002.86
2017-12-27T00:44:26.672Z,1002.84
2017-12-27T00:45:28.558Z,1002.87
2017-12-27T00:46:30.413Z,1002.84
2017-12-27T00:47:44.599Z,1002.76
2017-12-27T00:48:46.481Z,1002.74
2017-12-27T00:49:48.352Z,1002.68
2017-12-27T00:50:50.231Z,1002.64
2017-12-27T00:51:52.034Z,1002.62
2017-12-27T00:52:53.851Z,1002.61
2017-12-27T00:53:55.714Z,1002.59
2017-12-27T00:54:57.599Z,1002.55
2017-12-27T00:55:59.480Z,1002.58
2017-12-27T00:57:13.613Z,1002.56
2017-12-27T00:58:15.477Z,1002.55
2017-12-27T00:59:17.336Z,1002.57
2017-12-27T01:00:19.199Z,1002.51
2017-12-27T01:01:20.998Z,1002.48
2017-12-27T01:02:22.822Z,1002.50
2017-12-27T01:03:24.702Z,1002.43
2017-12-27T01:04:26.584Z,1002.48
2017-12-27T01:05:28.450Z,1002.46
2017-12-27T01:06:42.580Z,1002.42
2017-12-27T01:07:44.444Z,1002.43
2017-12-27T01:08:46.308Z,1002.47
2017-12-27T01:09:48.190Z,1002.45
2017-12-27T01:10:49.991Z,1002.43
2017-12-27T01:11:51.809Z,1002.46
2017-12-27T01:12:53.691Z,1002.44
2017-12-27T01:13:55.554Z,1002.40
2017-12-27T01:14:57.440Z,1002.45
2017-12-27T01:16:11.592Z,1002.43
2017-12-27T01:17:13.456Z,1002.40
2017-12-27T01:18:15.319Z,1002.42
2017-12-27T01:19:17.205Z,1002.37
2017-12-27T01:20:19.023Z,1002.39
2017-12-27T01:21:20.824Z,1002.35
2017-12-27T01:22:22.705Z,1002.33
2017-12-27T01:23:24.584Z,1002.29
2017-12-27T01:24:26.451Z,1002.30
2017-12-27T01:25:40.629Z,1002.27
2017-12-27T01:26:42.484Z,1002.24
2017-12-27T01:27:44.346Z,1002.24
2017-12-27T01:28:46.210Z,1002.24
2017-12-27T01:29:48.029Z,1002.23
2017-12-27T01:30:49.849Z,1002.18
2017-12-27T01:31:51.733Z,1002.14
2017-12-27T01:32:53.596Z,1002.14
2017-12-27T01:33:55.482Z,1002.08
2017-12-27T01:35:09.682Z,1002.04
2017-12-27T01:36:11.542Z,1002.06
2017-12-27T01:37:13.427Z,1002.10
2017-12-27T01:38:15.293Z,1002.09
2017-12-27T01:39:17.119Z,1002.08
2017-12-27T01:40:18.930Z,1002.08
2017-12-27T01:41:20.794Z,1002.01
2017-12-27T01:42:22.662Z,1002.03
2017-12-27T01:43:24.548Z,1001.98
2017-12-27T01:44:38.696Z,1001.90
2017-12-27T01:45:40.557Z,1001.92
2017-12-27T01:46:42.425Z,1001.93
2017-12-27T01:47:44.282Z,1001.90
2017-12-27T01:48:46.103Z,1001.91
2017-12-27T01:49:47.918Z,1001.90
2017-12-27T01:50:49.783Z,1001.91
2017-12-27T01:51:51.665Z,1001.93
2017-12-27T01:52:53.526Z,1001.85
2017-12-27T01:54:07.656Z,1001.80
2017-12-27T01:55:09.523Z,1001.82
2017-12-27T01:56:11.408Z,1001.76
2017-12-27T01:57:13.285Z,1001.70
2017-12-27T01:58:15.088Z,1001.69
2017-12-27T01:59:16.903Z,1001.66
2017-12-27T02:00:18.763Z,1001.61
2017-12-27T02:01:20.625Z,1001.63
2017-12-27T02:02:22.507Z,1001.59
2017-12-27T02:03:36.641Z,1001.59
2017-12-27T02:04:38.530Z,1001.58
2017-12-27T02:05:40.412Z,1001.55
2017-12-27T02:06:42.293Z,1001.57
2017-12-27T02:07:44.099Z,1001.50
2017-12-27T02:08:45.918Z,1001.46
2017-12-27T02:09:47.795Z,1001.48
2017-12-27T02:10:49.663Z,1001.49
2017-12-27T02:11:51.542Z,1001.42
2017-12-27T02:13:05.669Z,1001.36
2017-12-27T02:14:07.538Z,1001.33
2017-12-27T02:15:09.421Z,1001.28
2017-12-27T02:16:11.312Z,1001.28
2017-12-27T02:17:13.120Z,1001.25
2017-12-27T02:18:14.936Z,1001.23
2017-12-27T02:19:16.791Z,1001.22
2017-12-27T02:20:18.652Z,1001.25
2017-12-27T02:21:20.518Z,1001.28
2017-12-27T02:22:34.665Z,1001.26
2017-12-27T02:23:36.525Z,1001.19
2017-12-27T02:24:38.385Z,1001.20
2017-12-27T02:25:40.263Z,1001.19
2017-12-27T02:26:42.064Z,1001.19
2017-12-27T02:27:43.879Z,1001.19
2017-12-27T02:28:45.742Z,1001.17
2017-12-27T02:29:47.601Z,1001.16
2017-12-27T02:30:49.481Z,1001.14
2017-12-27T02:32:03.654Z,1001.18
2017-12-27T02:33:05.509Z,1001.16
2017-12-27T02:34:07.366Z,1001.18
2017-12-27T02:35:09.226Z,1001.19
2017-12-27T02:36:11.042Z,1001.17
2017-12-27T02:37:12.855Z,1001.10
2017-12-27T02:38:14.741Z,1001.08
2017-12-27T02:39:16.617Z,1001.06
2017-12-27T02:40:18.480Z,1001.00
2017-12-27T02:41:32.628Z,1000.98
2017-12-27T02:42:34.508Z,1000.95
2017-12-27T02:43:36.365Z,1000.93
2017-12-27T02:44:38.246Z,1000.94
2017-12-27T02:45:40.044Z,1000.93
2017-12-27T02:46:41.860Z,1000.88
2017-12-27T02:47:43.743Z,1000.87
2017-12-27T02:48:45.620Z,1000.86
2017-12-27T02:49:47.486Z,1000.87
2017-12-27T02:51:01.635Z,1000.86
2017-12-27T02:52:03.510Z,1000.80
2017-12-27T02:53:05.376Z,1000.82
2017-12-27T02:54:07.232Z,1000.85
2017-12-27T02:55:09.026Z,1000.81
2017-12-27T02:56:10.821Z,1000.76
2017-12-27T02:57:12.688Z,1000.75
2017-12-27T02:58:14.570Z,1000.73
2017-12-27T02:59:16.426Z,1000.72
2017-12-27T03:00:30.558Z,1000.67
2017-12-27T03:01:32.439Z,1000.69
2017-12-27T03:02:34.322Z,1000.70
2017-12-27T03:03:36.204Z,1000.59
2017-12-27T03:04:38.025Z,1000.55
2017-12-27T03:05:39.844Z,1000.50
2017-12-27T03:06:41.725Z,1000.44
2017-12-27T03:07:43.586Z,1000.47
2017-12-27T03:08:45.446Z,1000.46
2017-12-27T03:09:59.573Z,1000.40
2017-12-27T03:11:01.430Z,1000.41
2017-12-27T03:12:03.287Z,1000.37
2017-12-27T03:13:05.204Z,1000.37
2017-12-27T03:14:06.948Z,1000.33
2017-12-27T03:15:08.764Z,1000.28
2017-12-27T03:16:10.623Z,1000.23
2017-12-27T03:17:12.488Z,1000.23
2017-12-27T03:18:14.371Z,1000.25
2017-12-27T03:19:28.519Z,1000.32
2017-12-27T03:20:30.383Z,1000.32
2017-12-27T03:21:32.264Z,1000.32
2017-12-27T03:22:34.122Z,1000.32
2017-12-27T03:23:35.939Z,1000.27
2017-12-27T03:24:37.736Z,1000.29
2017-12-27T03:25:39.621Z,1000.28
2017-12-27T03:26:41.504Z,1000.25
2017-12-27T03:27:43.382Z,1000.25
2017-12-27T03:28:57.514Z,1000.26
2017-12-27T03:29:59.372Z,1000.30
2017-12-27T03:31:01.233Z,1000.31
2017-12-27T03:32:03.089Z,1000.30
2017-12-27T03:33:04.907Z,1000.24
2017-12-27T03:34:06.719Z,1000.22
2017-12-27T03:35:08.580Z,1000.17
2017-12-27T03:36:10.466Z,1000.22
2017-12-27T03:37:12.349Z,1000.22
2017-12-27T03:38:26.496Z,1000.22
2017-12-27T03:39:28.355Z,1000.19
2017-12-27T03:40:30.218Z,1000.10
2017-12-27T03:41:32.097Z,1000.09
2017-12-27T03:42:33.920Z,1000.09
2017-12-27T03:43:35.733Z,1000.02
2017-12-27T03:44:37.598Z,999.93
2017-12-27T03:45:39.465Z,999.96
2017-12-27T03:46:41.327Z,999.90
2017-12-27T03:47:55.474Z,999.94
2017-12-27T03:48:57.351Z,999.97
2017-12-27T03:49:59.207Z,999.92
2017-12-27T03:51:01.067Z,999.95
2017-12-27T03:52:02.877Z,999.93
2017-12-27T03:53:04.671Z,999.93
2017-12-27T03:54:06.534Z,999.91
2017-12-27T03:55:08.413Z,999.94
2017-12-27T03:56:10.269Z,999.90
2017-12-27T03:57:24.397Z,999.88
2017-12-27T03:58:26.277Z,999.93
2017-12-27T03:59:28.161Z,999.90
2017-12-27T04:00:30.036Z,999.79
2017-12-27T04:01:31.831Z,999.75
2017-12-27T04:02:33.624Z,999.74
2017-12-27T04:03:35.508Z,999.68
2017-12-27T04:04:37.392Z,999.63
2017-12-27T04:05:39.264Z,999.58
2017-12-27T04:06:53.397Z,999.59
2017-12-27T04:07:55.275Z,999.55
2017-12-27T04:08:57.153Z,999.57
2017-12-27T04:09:59.011Z,999.59
2017-12-27T04:11:00.808Z,999.62
2017-12-27T04:12:02.627Z,999.60
2017-12-27T04:13:04.507Z,999.56
2017-12-27T04:14:06.368Z,999.55
2017-12-27T04:15:08.230Z,999.55
2017-12-27T04:16:22.381Z,999.47
2017-12-27T04:17:24.257Z,999.50
2017-12-27T04:18:26.141Z,999.50
2017-12-27T04:19:28.021Z,999.50
2017-12-27T04:20:29.843Z,999.42
2017-12-27T04:21:31.657Z,999.38
2017-12-27T04:22:33.542Z,999.35
2017-12-27T04:23:35.414Z,999.35
2017-12-27T04:24:37.278Z,999.33
2017-12-27T04:25:51.428Z,999.39
2017-12-27T04:26:53.303Z,999.30
2017-12-27T04:27:55.164Z,999.33
2017-12-27T04:28:57.046Z,999.27
2017-12-27T04:29:58.836Z,999.25
2017-12-27T04:31:00.630Z,999.23
2017-12-27T04:32:02.511Z,999.20
2017-12-27T04:33:04.391Z,999.16
2017-12-27T04:34:06.246Z,999.14
2017-12-27T04:35:20.390Z,999.13
2017-12-27T04:36:22.250Z,999.07
2017-12-27T04:37:24.109Z,999.08
2017-12-27T04:38:25.987Z,999.00
2017-12-27T04:39:27.806Z,998.99
2017-12-27T04:40:29.622Z,998.97
2017-12-27T04:41:31.508Z,998.99
2017-12-27T04:42:33.393Z,998.95
2017-12-27T04:43:35.274Z,998.92
2017-12-27T04:44:49.418Z,998.87
2017-12-27T04:45:51.275Z,998.83
2017-12-27T04:46:53.131Z,998.86
2017-12-27T04:47:54.990Z,998.83
2017-12-27T04:48:56.790Z,998.80
2017-12-27T04:49:58.600Z,998.75
2017-12-27T04:51:00.480Z,998.79
2017-12-27T04:52:02.337Z,998.74
2017-12-27T04:53:04.227Z,998.75
2017-12-27T04:54:18.364Z,998.72
2017-12-27T04:55:20.228Z,998.77
2017-12-27T04:56:22.108Z,998.73
2017-12-27T04:57:23.991Z,998.67
2017-12-27T04:58:25.808Z,998.71
2017-12-27T04:59:27.604Z,998.67
2017-12-27T05:00:29.484Z,998.62
2017-12-27T05:01:31.344Z,998.62
2017-12-27T05:02:33.224Z,998.64
2017-12-27T05:03:47.350Z,998.69
2017-12-27T05:04:49.206Z,998.69
2017-12-27T05:05:51.090Z,998.64
2017-12-27T05:06:52.967Z,998.69
2017-12-27T05:07:54.786Z,998.69
2017-12-27T05:08:56.599Z,998.68
2017-12-27T05:09:58.457Z,998.72
2017-12-27T05:11:00.315Z,998.72
2017-12-27T05:12:02.172Z,998.70
2017-12-27T05:13:16.295Z,998.66
2017-12-27T05:14:18.151Z,998.67
2017-12-27T05:15:20.013Z,998.63
2017-12-27T05:16:21.894Z,998.66
2017-12-27T05:17:23.710Z,998.59
2017-12-27T05:18:25.502Z,998.52
2017-12-27T05:19:27.359Z,998.53
2017-12-27T05:20:29.211Z,998.49
2017-12-27T05:21:31.073Z,998.43
2017-12-27T05:22:45.195Z,998.45
2017-12-27T05:23:47.053Z,998.43
2017-12-27T05:24:48.934Z,998.44
2017-12-27T05:25:50.800Z,998.46
2017-12-27T05:26:52.615Z,998.42
2017-12-27T05:27:54.410Z,998.41
2017-12-27T05:28:56.271Z,998.40
2017-12-27T05:29:58.151Z,998.34
2017-12-27T05:31:00.010Z,998.31
2017-12-27T05:32:14.158Z,998.34
2017-12-27T05:33:16.039Z,998.30
2017-12-27T05:34:17.913Z,998.30
2017-12-27T05:35:19.765Z,998.32
2017-12-27T05:36:21.565Z,998.27
2017-12-27T05:37:23.360Z,998.24
2017-12-27T05:38:25.240Z,998.24
2017-12-27T05:39:27.099Z,998.22
2017-12-27T05:40:28.981Z,998.21
2017-12-27T05:41:43.129Z,998.17
2017-12-27T05:42:44.990Z,998.17
2017-12-27T05:43:46.873Z,998.15
2017-12-27T05:44:48.757Z,998.09
2017-12-27T05:45:50.569Z,998.08
2017-12-27T05:46:52.361Z,998.05
2017-12-27T05:47:54.224Z,998.06
2017-12-27T05:48:56.084Z,998.03
2017-12-27T05:49:57.940Z,998.04
2017-12-27T05:51:12.067Z,998.04
2017-12-27T05:52:13.945Z,997.98
2017-12-27T05:53:15.826Z,997.95
2017-12-27T05:54:17.683Z,997.96
2017-12-27T05:55:19.478Z,997.87
2017-12-27T05:56:21.292Z,997.84
2017-12-27T05:57:23.173Z,997.80
2017-12-27T05:58:25.053Z,997.82
2017-12-27T05:59:26.934Z,997.80
2017-12-27T06:00:41.084Z,997.76
2017-12-27T06:01:42.939Z,997.78
2017-12-27T06:02:44.795Z,997.81
2017-12-27T06:03:46.656Z,997.76
2017-12-27T06:04:48.476Z,997.80
2017-12-27T06:05:50.293Z,997.75
2017-12-27T06:06:52.169Z,997.68
2017-12-27T06:07:54.032Z,997.70
2017-12-27T06:08:55.910Z,997.62
2017-12-27T06:10:10.043Z,997.60
2017-12-27T06:11:11.900Z,997.55
2017-12-27T06:12:13.780Z,997.59
2017-12-27T06:13:15.642Z,997.55
2017-12-27T06:14:17.460Z,997.51
2017-12-27T06:15:19.256Z,997.50
2017-12-27T06:16:21.138Z,997.45
2017-12-27T06:17:23.020Z,997.40
2017-12-27T06:18:24.898Z,997.32
2017-12-27T06:19:39.026Z,997.27
2017-12-27T06:20:40.904Z,997.21
2017-12-27T06:21:42.782Z,997.19
2017-12-27T06:22:44.640Z,997.13
2017-12-27T06:23:46.436Z,997.07
2017-12-27T06:24:48.245Z,997.05
2017-12-27T06:25:50.108Z,997.03
2017-12-27T06:26:51.971Z,996.96
2017-12-27T06:27:53.820Z,996.96
2017-12-27T06:29:07.995Z,996.97
2017-12-27T06:30:09.858Z,996.93
2017-12-27T06:31:11.737Z,996.94
2017-12-27T06:32:13.593Z,996.85
2017-12-27T06:33:15.391Z,996.73
2017-12-27T06:34:17.205Z,996.51
2017-12-27T06:35:19.062Z,996.60
2017-12-27T06:36:20.941Z,996.74
2017-12-27T06:37:22.802Z,996.67
2017-12-27T06:38:36.952Z,996.65
2017-12-27T06:39:38.808Z,996.61
2017-12-27T06:40:40.669Z,996.57
2017-12-27T06:41:42.551Z,996.63
2017-12-27T06:42:44.351Z,996.61
2017-12-27T06:43:46.167Z,996.61
2017-12-27T06:44:48.049Z,996.59
2017-12-27T06:45:49.909Z,996.67
2017-12-27T06:46:51.792Z,996.66
2017-12-27T06:48:05.965Z,996.60
2017-12-27T06:49:07.823Z,996.53
2017-12-27T06:50:09.698Z,996.50
2017-12-27T06:51:11.587Z,996.47
2017-12-27T06:52:13.398Z,996.50
2017-12-27T06:53:15.197Z,996.44
2017-12-27T06:54:17.052Z,996.40
2017-12-27T06:55:18.913Z,996.47
2017-12-27T06:56:20.775Z,996.41
2017-12-27T06:57:34.904Z,996.43
2017-12-27T06:58:36.758Z,996.32
2017-12-27T06:59:38.623Z,996.30
2017-12-27T07:00:40.486Z,996.29
2017-12-27T07:01:42.288Z,996.27
2017-12-27T07:02:44.102Z,996.21
2017-12-27T07:03:45.964Z,996.24
2017-12-27T07:04:47.825Z,996.27
2017-12-27T07:05:49.691Z,996.28
2017-12-27T07:07:03.894Z,996.27
2017-12-27T07:08:05.744Z,996.27
2017-12-27T07:09:07.602Z,996.32
2017-12-27T07:10:09.463Z,996.29
2017-12-27T07:11:11.260Z,996.26
2017-12-27T07:12:13.079Z,996.17
2017-12-27T07:13:14.942Z,996.15
2017-12-27T07:14:16.804Z,996.24
2017-12-27T07:15:18.689Z,996.20
2017-12-27T07:16:32.837Z,996.10
2017-12-27T07:17:34.720Z,996.14
2017-12-27T07:18:36.581Z,996.15
2017-12-27T07:19:38.458Z,996.08
2017-12-27T07:20:40.256Z,996.04
2017-12-27T07:21:42.056Z,996.12
2017-12-27T07:22:43.956Z,996.13
2017-12-27T07:23:45.823Z,996.11
2017-12-27T07:24:47.709Z,996.11
2017-12-27T07:26:01.836Z,996.09
2017-12-27T07:27:03.714Z,996.18
2017-12-27T07:28:05.580Z,996.13
2017-12-27T07:29:07.442Z,996.11
2017-12-27T07:30:09.266Z,996.14
2017-12-27T07:31:11.081Z,996.08
2017-12-27T07:32:12.951Z,996.06
2017-12-27T07:33:14.835Z,996.13
2017-12-27T07:34:16.722Z,996.02
2017-12-27T07:35:30.877Z,996.06
2017-12-27T07:36:32.759Z,996.03
2017-12-27T07:37:34.642Z,995.93
2017-12-27T07:38:36.527Z,996.00
2017-12-27T07:39:38.350Z,995.96
2017-12-27T07:40:40.142Z,995.96
2017-12-27T07:41:42.070Z,995.96
2017-12-27T07:42:43.988Z,996.08
2017-12-27T07:43:45.855Z,995.98
2017-12-27T07:45:00.006Z,996.02
2017-12-27T07:46:01.864Z,995.98
2017-12-27T07:47:03.730Z,995.88
2017-12-27T07:48:05.591Z,995.96
2017-12-27T07:49:07.414Z,995.81
2017-12-27T07:50:09.234Z,995.79
2017-12-27T07:51:11.118Z,995.86
2017-12-27T07:52:13.004Z,995.77
2017-12-27T07:53:14.863Z,995.80
2017-12-27T07:54:28.992Z,995.79
2017-12-27T07:55:30.858Z,995.74
2017-12-27T07:56:32.755Z,995.72
2017-12-27T07:57:34.640Z,995.72
2017-12-27T07:58:36.463Z,995.70
2017-12-27T07:59:38.280Z,995.71
2017-12-27T08:00:40.144Z,995.67
2017-12-27T08:01:42.032Z,995.66
2017-12-27T08:02:43.895Z,995.56
2017-12-27T08:03:58.260Z,995.54
2017-12-27T08:05:00.130Z,995.54
2017-12-27T08:06:02.070Z,995.55
2017-12-27T08:07:04.042Z,995.47
2017-12-27T08:08:06.014Z,995.53
2017-12-27T08:09:07.899Z,995.50
2017-12-27T08:10:10.092Z,995.55
2017-12-27T08:11:11.979Z,995.55
2017-12-27T08:12:13.904Z,995.59
2017-12-27T08:13:28.168Z,995.53
2017-12-27T08:14:30.147Z,995.50
2017-12-27T08:15:32.111Z,995.37
2017-12-27T08:16:33.977Z,995.44
2017-12-27T08:17:35.800Z,995.36
2017-12-27T08:18:37.621Z,995.36
2017-12-27T08:19:39.510Z,995.32
2017-12-27T08:20:41.392Z,995.45
2017-12-27T08:21:43.257Z,995.43
2017-12-27T08:22:57.411Z,995.46
2017-12-27T08:23:59.306Z,995.36
2017-12-27T08:25:01.182Z,995.42
2017-12-27T08:26:03.050Z,995.42
2017-12-27T08:27:04.873Z,995.38
2017-12-27T08:28:06.675Z,995.35
2017-12-27T08:29:08.563Z,995.42
2017-12-27T08:30:10.464Z,995.46
2017-12-27T08:31:12.339Z,995.51
2017-12-27T08:32:26.471Z,995.61
2017-12-27T08:33:28.356Z,995.57
2017-12-27T08:34:30.242Z,995.61
2017-12-27T08:35:32.105Z,995.49
2017-12-27T08:36:33.931Z,995.50
2017-12-27T08:37:35.756Z,995.52
2017-12-27T08:38:37.642Z,995.44
2017-12-27T08:39:39.507Z,995.41
2017-12-27T08:40:41.390Z,995.35
2017-12-27T08:41:55.521Z,995.43
2017-12-27T08:42:57.388Z,995.29
2017-12-27T08:43:59.270Z,995.35
2017-12-27T08:45:01.140Z,995.31
2017-12-27T08:46:02.965Z,995.37
2017-12-27T08:47:04.788Z,995.36
2017-12-27T08:48:06.691Z,995.46
2017-12-27T08:49:08.584Z,995.45
2017-12-27T08:50:10.500Z,995.44
2017-12-27T08:51:24.728Z,995.38
2017-12-27T08:52:26.780Z,995.35
2017-12-27T08:53:28.637Z,995.37
2017-12-27T08:54:30.571Z,995.37
2017-12-27T08:55:32.379Z,995.40
2017-12-27T08:56:34.212Z,995.32
2017-12-27T08:57:36.143Z,995.34
2017-12-27T08:58:38.043Z,995.35
2017-12-27T08:59:39.909Z,995.28
2017-12-27T09:00:54.092Z,995.34
2017-12-27T09:01:55.973Z,995.36
2017-12-27T09:02:57.867Z,995.30
2017-12-27T09:03:59.736Z,995.24
2017-12-27T09:05:01.564Z,995.16
2017-12-27T09:06:03.387Z,995.14
2017-12-27T09:07:05.250Z,995.13
2017-12-27T09:08:07.118Z,995.18
2017-12-27T09:09:09.023Z,995.14
2017-12-27T09:10:23.179Z,995.18
2017-12-27T09:11:25.062Z,995.14
2017-12-27T09:12:26.922Z,995.12
2017-12-27T09:13:28.796Z,995.21
2017-12-27T09:14:30.620Z,995.16
2017-12-27T09:15:32.397Z,995.18
2017-12-27T09:16:34.287Z,995.22
2017-12-27T09:17:36.168Z,995.20
2017-12-27T09:18:38.039Z,995.08
2017-12-27T09:19:52.196Z,995.22
2017-12-27T09:20:54.084Z,995.26
2017-12-27T09:21:55.964Z,995.35
2017-12-27T09:22:57.843Z,995.33
2017-12-27T09:23:59.771Z,995.35
2017-12-27T09:25:01.562Z,995.33
2017-12-27T09:26:03.450Z,995.24
2017-12-27T09:27:05.334Z,995.25
2017-12-27T09:28:07.191Z,995.30
2017-12-27T09:29:21.327Z,995.19
2017-12-27T09:30:23.191Z,995.11
2017-12-27T09:31:25.076Z,995.15
2017-12-27T09:32:26.984Z,995.14
2017-12-27T09:33:28.809Z,995.12
2017-12-27T09:34:30.639Z,995.09
2017-12-27T09:35:32.536Z,995.13
2017-12-27T09:36:34.400Z,995.11
2017-12-27T09:37:36.309Z,995.09
2017-12-27T09:38:50.438Z,995.08
2017-12-27T09:39:52.307Z,995.05
2017-12-27T09:40:54.216Z,995.09
2017-12-27T09:41:56.082Z,994.99
2017-12-27T09:42:57.901Z,995.01
2017-12-27T09:43:59.701Z,994.96
2017-12-27T09:45:01.602Z,995.01
2017-12-27T09:46:03.440Z,994.95
2017-12-27T09:47:05.350Z,995.00
2017-12-27T09:48:19.504Z,994.93
2017-12-27T09:49:21.392Z,994.91
2017-12-27T09:50:23.327Z,994.89
2017-12-27T09:51:25.144Z,994.84
2017-12-27T09:52:26.969Z,994.78
2017-12-27T09:53:28.801Z,994.81
2017-12-27T09:54:30.687Z,994.80
2017-12-27T09:55:32.568Z,994.79
2017-12-27T09:56:34.425Z,994.71
2017-12-27T09:57:48.683Z,994.72
2017-12-27T09:58:50.515Z,994.65
2017-12-27T09:59:52.422Z,994.52
2017-12-27T10:00:54.301Z,994.56
2017-12-27T10:01:56.119Z,994.57
2017-12-27T10:02:57.931Z,994.49
2017-12-27T10:03:59.813Z,994.47
2017-12-27T10:05:01.699Z,994.65
2017-12-27T10:06:03.569Z,994.60
2017-12-27T10:07:17.746Z,994.63
2017-12-27T10:08:19.632Z,994.56
2017-12-27T10:09:21.501Z,994.58
2017-12-27T10:10:23.390Z,994.59
2017-12-27T10:11:25.214Z,994.55
2017-12-27T10:12:27.038Z,994.60
2017-12-27T10:13:28.906Z,994.58
2017-12-27T10:14:30.788Z,994.49
2017-12-27T10:15:32.617Z,994.52
2017-12-27T10:16:46.820Z,994.44
2017-12-27T10:17:48.687Z,994.48
2017-12-27T10:18:50.549Z,994.44
2017-12-27T10:19:52.452Z,994.42
2017-12-27T10:20:54.239Z,994.39
2017-12-27T10:21:56.142Z,994.35
2017-12-27T10:22:57.950Z,994.32
2017-12-27T10:23:59.851Z,994.28
2017-12-27T10:25:01.721Z,994.27
2017-12-27T10:26:15.853Z,994.15
2017-12-27T10:27:17.740Z,994.08
2017-12-27T10:28:19.623Z,994.10
2017-12-27T10:29:21.487Z,994.00
2017-12-27T10:30:23.291Z,993.96
2017-12-27T10:31:25.114Z,993.88
2017-12-27T10:32:27.007Z,993.85
2017-12-27T10:33:28.875Z,993.83
2017-12-27T10:34:30.734Z,993.84
2017-12-27T10:35:44.869Z,993.82
2017-12-27T10:36:46.745Z,993.83
2017-12-27T10:37:48.616Z,993.74
2017-12-27T10:38:50.501Z,993.79
2017-12-27T10:39:52.627Z,993.76
2017-12-27T10:40:54.388Z,993.71
2017-12-27T10:41:56.280Z,993.70
2017-12-27T10:42:58.177Z,993.69
2017-12-27T10:44:00.031Z,993.64
2017-12-27T10:45:14.165Z,993.62
2017-12-27T10:46:16.060Z,993.58
2017-12-27T10:47:17.938Z,993.61
2017-12-27T10:48:19.833Z,993.60
2017-12-27T10:49:21.636Z,993.60
2017-12-27T10:50:23.456Z,993.59
2017-12-27T10:51:25.408Z,993.64
2017-12-27T10:52:27.311Z,993.64
2017-12-27T10:53:29.168Z,993.63
2017-12-27T10:54:43.366Z,993.55
2017-12-27T10:55:45.247Z,993.52
2017-12-27T10:56:47.111Z,993.55
2017-12-27T10:57:49.014Z,993.52
2017-12-27T10:58:50.817Z,993.48
2017-12-27T10:59:52.614Z,993.50
2017-12-27T11:00:54.517Z,993.48
2017-12-27T11:01:56.379Z,993.52
2017-12-27T11:02:58.235Z,993.53
2017-12-27T11:04:12.457Z,993.47
2017-12-27T11:05:14.292Z,993.41
2017-12-27T11:06:16.195Z,993.41
2017-12-27T11:07:18.051Z,993.37
2017-12-27T11:08:19.910Z,993.29
2017-12-27T11:09:21.731Z,993.34
2017-12-27T11:10:23.590Z,993.28
2017-12-27T11:11:25.452Z,993.18
2017-12-27T11:12:27.315Z,993.24
2017-12-27T11:13:41.447Z,993.18
2017-12-27T11:14:43.312Z,993.15
2017-12-27T11:15:45.174Z,993.16
2017-12-27T11:16:47.039Z,993.11
2017-12-27T11:17:48.838Z,993.12
2017-12-27T11:18:50.640Z,993.10
2017-12-27T11:19:52.528Z,993.07
2017-12-27T11:20:54.386Z,993.07
2017-12-27T11:21:56.248Z,993.10
2017-12-27T11:23:10.384Z,993.15
2017-12-27T11:24:12.246Z,993.01
2017-12-27T11:25:14.135Z,992.99
2017-12-27T11:26:16.002Z,993.04
2017-12-27T11:27:17.803Z,993.01
2017-12-27T11:28:19.598Z,992.99
2017-12-27T11:29:21.468Z,992.95
2017-12-27T11:30:23.355Z,992.95
2017-12-27T11:31:25.240Z,992.99
2017-12-27T11:32:39.370Z,992.94
2017-12-27T11:33:41.236Z,992.93
2017-12-27T11:34:43.099Z,992.86
2017-12-27T11:35:44.984Z,992.79
2017-12-27T11:36:46.792Z,992.76
2017-12-27T11:37:48.643Z,992.82
2017-12-27T11:38:50.529Z,992.75
2017-12-27T11:39:52.430Z,992.74
2017-12-27T11:40:54.305Z,992.70
2017-12-27T11:42:08.448Z,992.63
2017-12-27T11:43:10.346Z,992.65
2017-12-27T11:44:12.223Z,992.55
2017-12-27T11:45:14.084Z,992.52
2017-12-27T11:46:15.891Z,992.50
2017-12-27T11:47:17.710Z,992.49
2017-12-27T11:48:19.599Z,992.50
2017-12-27T11:49:21.485Z,992.51
2017-12-27T11:50:23.790Z,992.48
2017-12-27T11:51:37.892Z,992.47
2017-12-27T11:52:39.781Z,992.41
2017-12-27T11:53:41.661Z,992.43
2017-12-27T11:54:43.528Z,992.47
2017-12-27T11:55:45.348Z,992.47
2017-12-27T11:56:47.148Z,992.38
2017-12-27T11:57:49.010Z,992.38
2017-12-27T11:58:50.878Z,992.36
2017-12-27T11:59:52.762Z,992.35
2017-12-27T12:01:06.945Z,992.32
2017-12-27T12:02:08.830Z,992.28
2017-12-27T12:03:10.701Z,992.25
2017-12-27T12:04:12.580Z,992.27
2017-12-27T12:05:14.409Z,992.25
2017-12-27T12:06:16.229Z,992.23
2017-12-27T12:07:18.122Z,992.27
2017-12-27T12:08:19.986Z,992.27
2017-12-27T12:09:21.846Z,992.17
2017-12-27T12:10:35.979Z,992.20
2017-12-27T12:11:37.845Z,992.23
2017-12-27T12:12:39.708Z,992.19
2017-12-27T12:13:41.594Z,992.12
2017-12-27T12:14:43.397Z,992.12
2017-12-27T12:15:45.219Z,992.16
2017-12-27T12:16:47.108Z,992.09
2017-12-27T12:17:48.995Z,991.99
2017-12-27T12:18:50.886Z,991.99
2017-12-27T12:20:05.038Z,991.85
2017-12-27T12:21:06.902Z,991.88
2017-12-27T12:22:08.767Z,991.73
2017-12-27T12:23:10.657Z,991.72
2017-12-27T12:24:12.479Z,991.61
2017-12-27T12:25:14.277Z,991.66
2017-12-27T12:26:16.141Z,991.68
2017-12-27T12:27:18.006Z,991.58
2017-12-27T12:28:19.872Z,991.55
2017-12-27T12:29:34.027Z,991.59
2017-12-27T12:30:35.914Z,991.54
2017-12-27T12:31:37.773Z,991.55
2017-12-27T12:32:39.663Z,991.53
2017-12-27T12:33:41.485Z,991.47
2017-12-27T12:34:43.306Z,991.41
2017-12-27T12:35:45.176Z,991.41
2017-12-27T12:36:47.059Z,991.38
2017-12-27T12:37:48.931Z,991.42
2017-12-27T12:39:03.086Z,991.42
2017-12-27T12:40:04.951Z,991.38
2017-12-27T12:41:06.843Z,991.39
2017-12-27T12:42:08.738Z,991.35
2017-12-27T12:43:10.561Z,991.32
2017-12-27T12:44:12.399Z,991.38
2017-12-27T12:45:14.292Z,991.38
2017-12-27T12:46:16.169Z,991.34
2017-12-27T12:47:18.062Z,991.36
2017-12-27T12:48:32.222Z,991.22
2017-12-27T12:49:34.079Z,991.25
2017-12-27T12:50:35.936Z,991.12
2017-12-27T12:51:37.811Z,991.23
2017-12-27T12:52:39.634Z,991.26
2017-12-27T12:53:41.444Z,991.14
2017-12-27T12:54:43.335Z,991.12
2017-12-27T12:55:45.224Z,991.13
2017-12-27T12:56:47.137Z,991.16
2017-12-27T12:58:01.287Z,991.07
2017-12-27T12:59:03.159Z,991.04
2017-12-27T13:00:05.043Z,991.03
2017-12-27T13:01:06.898Z,990.94